Terminal Aerodrome Forecast
Issued by NWS

Current Version | Previous Version | Text Only | Print | Product List | Glossary On
Versions: 1 2 3 4 5 6 7 8 9 10 11 12 13 14 15 16 17 18 19
000
FTAK31 PAJN 301400 AAA
TAFAKT
TAF AMD
PAKT 301429Z 3014/3112 33009KT P6SM VCSH SCT100 OVC200
      TEMPO 3014/3018 30007KT BKN050
     FM301800 33011KT P6SM -RA SCT025 OVC050 WS020/05025KT
     FM302100 14025G35KT 4SM RA BR BKN022 OVC030 WS020/15040KT
     FM310300 16012KT 6SM -RA BR OVC025
      AMD LTD TO CLD VIS AND WIND 3014/3015=

USA.gov is the U.S. government's official web portal to all federal, state and local government web resources and services.